sensor_id;sensor_type;location;lat;lon;timestamp;pressure;altitude;pressure_sealevel;temperature;humidity
71565;BME280;59397;50.952;14.502;2024-03-02T00:16:20;961.74;;;9.62;100.00
71565;BME280;59397;50.952;14.502;2024-03-02T00:35:54;961.56;;;9.80;100.00
71565;BME280;59397;50.952;14.502;2024-03-02T00:55:31;961.62;;;9.82;100.00
71565;BME280;59397;50.952;14.502;2024-03-02T01:14:48;961.67;;;9.82;100.00
71565;BME280;59397;50.952;14.502;2024-03-02T01:34:23;961.57;;;9.90;100.00
71565;BME280;59397;50.952;14.502;2024-03-02T01:53:57;961.50;;;9.61;100.00
71565;BME280;59397;50.952;14.502;2024-03-02T02:13:32;961.39;;;9.64;100.00
71565;BME280;59397;50.952;14.502;2024-03-02T02:33:06;961.42;;;9.40;100.00
71565;BME280;59397;50.952;14.502;2024-03-02T02:52:40;961.44;;;9.31;100.00
71565;BME280;59397;50.952;14.502;2024-03-02T03:12:15;961.44;;;9.37;100.00
71565;BME280;59397;50.952;14.502;2024-03-02T03:31:50;961.50;;;9.81;100.00
71565;BME280;59397;50.952;14.502;2024-03-02T03:51:24;961.44;;;9.59;100.00
71565;BME280;59397;50.952;14.502;2024-03-02T04:10:59;961.44;;;9.59;100.00
71565;BME280;59397;50.952;14.502;2024-03-02T04:30:31;961.73;;;9.06;100.00
71565;BME280;59397;50.952;14.502;2024-03-02T04:50:06;961.82;;;9.33;100.00
71565;BME280;59397;50.952;14.502;2024-03-02T05:09:39;962.01;;;8.99;100.00
71565;BME280;59397;50.952;14.502;2024-03-02T05:29:13;962.14;;;8.86;100.00
71565;BME280;59397;50.952;14.502;2024-03-02T05:48:48;962.44;;;9.31;100.00
71565;BME280;59397;50.952;14.502;2024-03-02T06:08:23;962.62;;;9.08;100.00
71565;BME280;59397;50.952;14.502;2024-03-02T06:27:54;962.87;;;8.66;100.00
71565;BME280;59397;50.952;14.502;2024-03-02T06:47:29;962.96;;;9.19;100.00
71565;BME280;59397;50.952;14.502;2024-03-02T07:07:05;963.22;;;8.80;100.00
71565;BME280;59397;50.952;14.502;2024-03-02T07:26:39;963.37;;;8.74;100.00
71565;BME280;59397;50.952;14.502;2024-03-02T07:46:13;963.74;;;9.07;100.00
71565;BME280;59397;50.952;14.502;2024-03-02T08:05:47;963.74;;;9.39;100.00
71565;BME280;59397;50.952;14.502;2024-03-02T08:25:22;963.68;;;10.44;100.00
71565;BME280;59397;50.952;14.502;2024-03-02T08:44:57;963.69;;;9.91;100.00
71565;BME280;59397;50.952;14.502;2024-03-02T09:04:33;963.55;;;10.50;100.00
71565;BME280;59397;50.952;14.502;2024-03-02T09:24:08;963.61;;;10.59;100.00
71565;BME280;59397;50.952;14.502;2024-03-02T09:43:43;963.58;;;11.31;98.01
71565;BME280;59397;50.952;14.502;2024-03-02T10:03:16;963.63;;;11.04;97.89
71565;BME280;59397;50.952;14.502;2024-03-02T10:22:51;963.74;;;10.29;97.61
71565;BME280;59397;50.952;14.502;2024-03-02T10:42:28;963.60;;;11.59;89.96
71565;BME280;59397;50.952;14.502;2024-03-02T11:02:03;963.58;;;11.78;89.89
71565;BME280;59397;50.952;14.502;2024-03-02T11:21:34;963.63;;;11.07;91.32
71565;BME280;59397;50.952;14.502;2024-03-02T11:41:08;963.40;;;11.57;88.99
71565;BME280;59397;50.952;14.502;2024-03-02T12:00:42;963.24;;;10.90;90.94
71565;BME280;59397;50.952;14.502;2024-03-02T12:20:21;963.14;;;11.44;84.89
71565;BME280;59397;50.952;14.502;2024-03-02T12:39:53;963.25;;;11.91;88.06
71565;BME280;59397;50.952;14.502;2024-03-02T12:59:24;963.24;;;10.98;92.19
71565;BME280;59397;50.952;14.502;2024-03-02T13:18:58;963.27;;;11.56;90.26
71565;BME280;59397;50.952;14.502;2024-03-02T13:38:32;963.19;;;11.08;91.42
71565;BME280;59397;50.952;14.502;2024-03-02T13:58:07;963.18;;;11.38;89.16
71565;BME280;59397;50.952;14.502;2024-03-02T14:17:41;963.11;;;11.74;90.15
71565;BME280;59397;50.952;14.502;2024-03-02T14:37:14;963.02;;;11.28;94.98
71565;BME280;59397;50.952;14.502;2024-03-02T14:56:45;962.92;;;11.10;96.69
71565;BME280;59397;50.952;14.502;2024-03-02T15:16:18;962.86;;;11.36;94.51
71565;BME280;59397;50.952;14.502;2024-03-02T15:35:53;962.87;;;10.60;97.88
71565;BME280;59397;50.952;14.502;2024-03-02T15:55:28;962.83;;;10.84;98.96
71565;BME280;59397;50.952;14.502;2024-03-02T16:14:58;962.73;;;10.49;99.23
71565;BME280;59397;50.952;14.502;2024-03-02T16:34:30;962.88;;;9.87;100.00
71565;BME280;59397;50.952;14.502;2024-03-02T16:54:02;962.94;;;9.12;100.00
71565;BME280;59397;50.952;14.502;2024-03-02T17:13:32;963.11;;;8.25;100.00
71565;BME280;59397;50.952;14.502;2024-03-02T17:33:05;963.04;;;8.57;100.00
71565;BME280;59397;50.952;14.502;2024-03-02T17:52:39;962.93;;;8.90;100.00
71565;BME280;59397;50.952;14.502;2024-03-02T18:12:13;962.97;;;8.23;100.00
71565;BME280;59397;50.952;14.502;2024-03-02T18:31:45;962.94;;;8.37;100.00
71565;BME280;59397;50.952;14.502;2024-03-02T18:51:19;963.08;;;7.81;100.00
71565;BME280;59397;50.952;14.502;2024-03-02T19:10:50;963.03;;;7.40;100.00
71565;BME280;59397;50.952;14.502;2024-03-02T19:30:24;962.94;;;7.67;100.00
71565;BME280;59397;50.952;14.502;2024-03-02T19:50:05;962.82;;;8.05;100.00
71565;BME280;59397;50.952;14.502;2024-03-02T20:09:42;962.66;;;9.63;100.00
71565;BME280;59397;50.952;14.502;2024-03-02T20:29:16;962.62;;;8.99;100.00
71565;BME280;59397;50.952;14.502;2024-03-02T20:48:51;962.62;;;9.11;100.00
71565;BME280;59397;50.952;14.502;2024-03-02T21:08:25;962.52;;;8.76;100.00
71565;BME280;59397;50.952;14.502;2024-03-02T21:28:01;962.55;;;9.15;100.00
71565;BME280;59397;50.952;14.502;2024-03-02T21:47:36;962.48;;;9.55;100.00
71565;BME280;59397;50.952;14.502;2024-03-02T22:07:11;962.39;;;9.22;100.00
71565;BME280;59397;50.952;14.502;2024-03-02T22:26:45;962.13;;;9.40;100.00
71565;BME280;59397;50.952;14.502;2024-03-02T22:46:20;962.13;;;9.36;100.00
71565;BME280;59397;50.952;14.502;2024-03-02T23:05:54;962.18;;;9.23;100.00
71565;BME280;59397;50.952;14.502;2024-03-02T23:25:28;962.05;;;9.09;100.00
71565;BME280;59397;50.952;14.502;2024-03-02T23:45:07;961.81;;;9.27;100.00
